createdAt,value
2022-12-23T00:00:07.550Z,99270.66
2022-12-23T00:01:16.234Z,99257.69
2022-12-23T00:02:18.031Z,99258.84
2022-12-23T00:03:22.103Z,99259.66
2022-12-23T00:04:24.719Z,99260.78
2022-12-23T00:05:26.257Z,99256.72
2022-12-23T00:06:28.791Z,99260.53
2022-12-23T00:07:30.408Z,99254.72
2022-12-23T00:08:32.851Z,99263.88
2022-12-23T00:09:35.374Z,99263.78
2022-12-23T00:10:38.603Z,99257.25
2022-12-23T00:12:01.757Z,99253.91
2022-12-23T00:13:24.044Z,99255.53
2022-12-23T00:14:44.028Z,99252.06
2022-12-23T00:15:45.698Z,99253.06
2022-12-23T00:16:48.240Z,99253.91
2022-12-23T00:17:49.870Z,99254.69
2022-12-23T00:18:54.351Z,99256.31
2022-12-23T00:19:55.846Z,99255.09
2022-12-23T00:21:04.814Z,99248.66
2022-12-23T00:22:10.703Z,99254.03
2022-12-23T00:23:12.194Z,99250.78
2022-12-23T00:24:14.712Z,99252.19
2022-12-23T00:25:16.438Z,99255.09
2022-12-23T00:26:22.492Z,99247.03
2022-12-23T00:27:23.983Z,99250.66
2022-12-23T00:28:27.997Z,99253.75
2022-12-23T00:29:29.733Z,99253.69
2022-12-23T00:30:32.200Z,99249.47
2022-12-23T00:31:36.933Z,99257.25
2022-12-23T00:32:38.646Z,99249.25
2022-12-23T00:33:42.872Z,99252.78
2022-12-23T00:34:45.669Z,99249.28
2022-12-23T00:35:48.688Z,99244.53
2022-12-23T00:36:50.248Z,99240.97
2022-12-23T00:37:52.719Z,99245.53
2022-12-23T00:39:13.706Z,99247.13
2022-12-23T00:40:33.706Z,99243.81
2022-12-23T00:42:02.390Z,99250.28
2022-12-23T00:43:04.898Z,99246.66
2022-12-23T00:44:06.363Z,99243.81
2022-12-23T00:45:16.349Z,99242.00
2022-12-23T00:46:17.951Z,99243.31
2022-12-23T00:47:38.287Z,99241.59
2022-12-23T00:48:58.305Z,99249.84
2022-12-23T00:50:02.060Z,99249.78
2022-12-23T00:51:03.807Z,99244.63
2022-12-23T00:52:09.103Z,99241.28
2022-12-23T00:53:10.695Z,99247.22
2022-12-23T00:54:13.158Z,99240.56
2022-12-23T00:55:14.632Z,99239.97
2022-12-23T00:56:17.086Z,99240.53
2022-12-23T00:57:19.518Z,99242.06
2022-12-23T00:58:22.058Z,99245.06
2022-12-23T00:59:24.562Z,99239.97
2022-12-23T01:00:40.994Z,99247.88
2022-12-23T01:02:01.106Z,99247.94
2022-12-23T01:03:19.689Z,99245.22
2022-12-23T01:04:39.678Z,99247.75
2022-12-23T01:05:43.465Z,99248.25
2022-12-23T01:06:45.038Z,99249.22
2022-12-23T01:07:47.651Z,99238.16
2022-12-23T01:08:49.186Z,99241.28
2022-12-23T01:09:51.637Z,99243.22
2022-12-23T01:10:53.297Z,99246.13
2022-12-23T01:11:55.912Z,99239.81
2022-12-23T01:12:57.461Z,99246.84
2022-12-23T01:13:59.894Z,99239.09
2022-12-23T01:15:01.424Z,99244.72
2022-12-23T01:16:04.996Z,99233.13
2022-12-23T01:17:07.778Z,99234.47
2022-12-23T01:18:10.256Z,99234.84
2022-12-23T01:19:11.889Z,99230.81
2022-12-23T01:20:14.793Z,99232.53
2022-12-23T01:21:17.706Z,99229.91
2022-12-23T01:22:20.148Z,99225.28
2022-12-23T01:23:21.767Z,99230.00
2022-12-23T01:24:24.264Z,99233.44
2022-12-23T01:25:25.767Z,99228.06
2022-12-23T01:26:28.277Z,99226.88
2022-12-23T01:27:29.770Z,99226.09
2022-12-23T01:28:37.333Z,99222.63
2022-12-23T01:29:38.891Z,99225.28
2022-12-23T01:30:41.372Z,99222.56
2022-12-23T01:31:43.020Z,99222.44
2022-12-23T01:32:45.533Z,99221.25
2022-12-23T01:33:50.045Z,99227.50
2022-12-23T01:34:52.456Z,99221.84
2022-12-23T01:36:02.069Z,99221.44
2022-12-23T01:37:06.572Z,99219.19
2022-12-23T01:38:08.143Z,99223.00
2022-12-23T01:39:10.571Z,99221.44
2022-12-23T01:40:12.102Z,99231.09
2022-12-23T01:41:39.550Z,99223.75
2022-12-23T01:42:43.993Z,99221.44
2022-12-23T01:43:48.317Z,99222.66
2022-12-23T01:44:56.038Z,99214.91
2022-12-23T01:45:58.456Z,99215.69
2022-12-23T01:47:00.049Z,99217.72
2022-12-23T01:48:06.148Z,99212.56
2022-12-23T01:49:07.728Z,99211.97
2022-12-23T01:50:15.049Z,99208.31
2022-12-23T01:51:20.671Z,99213.72
2022-12-23T01:52:25.042Z,99220.63
2022-12-23T01:53:30.775Z,99217.81
2022-12-23T01:54:33.823Z,99209.19
2022-12-23T01:55:40.722Z,99214.53
2022-12-23T01:56:42.272Z,99210.91
2022-12-23T01:57:45.839Z,99215.75
2022-12-23T01:58:50.477Z,99220.63
2022-12-23T02:00:10.903Z,99213.53
2022-12-23T02:01:31.986Z,99224.41
2022-12-23T02:02:55.212Z,99218.91
2022-12-23T02:04:01.497Z,99225.75
2022-12-23T02:05:03.115Z,99232.50
2022-12-23T02:06:20.260Z,99234.03
2022-12-23T02:07:41.478Z,99234.66
2022-12-23T02:09:01.889Z,99232.03
2022-12-23T02:10:05.504Z,99237.66
2022-12-23T02:11:31.703Z,99236.03
2022-12-23T02:12:47.327Z,99227.22
2022-12-23T02:14:17.375Z,99224.78
2022-12-23T02:15:49.520Z,99226.34
2022-12-23T02:17:00.466Z,99227.44
2022-12-23T02:18:21.285Z,99221.81
2022-12-23T02:19:35.656Z,99230.81
2022-12-23T02:21:02.780Z,99227.31
2022-12-23T02:22:23.108Z,99228.50
2022-12-23T02:23:58.450Z,99222.44
2022-12-23T02:25:43.947Z,99232.44
2022-12-23T02:27:00.267Z,99225.75
2022-12-23T02:28:23.361Z,99227.19
2022-12-23T02:29:53.672Z,99217.63
2022-12-23T02:31:09.521Z,99219.22
2022-12-23T02:32:16.047Z,99213.06
2022-12-23T02:33:31.213Z,99211.94
2022-12-23T02:34:40.891Z,99216.81
2022-12-23T02:35:47.705Z,99219.31
2022-12-23T02:36:59.321Z,99221.13
2022-12-23T02:38:10.862Z,99223.34
2022-12-23T02:39:21.148Z,99219.91
2022-12-23T02:40:32.054Z,99221.63
2022-12-23T02:41:39.601Z,99215.88
2022-12-23T02:42:46.311Z,99230.28
2022-12-23T02:43:52.467Z,99226.25
2022-12-23T02:45:00.101Z,99221.69
2022-12-23T02:46:09.966Z,99226.44
2022-12-23T02:47:15.427Z,99221.19
2022-12-23T02:48:24.706Z,99216.97
2022-12-23T02:49:31.353Z,99219.41
2022-12-23T02:50:38.095Z,99207.91
2022-12-23T02:51:44.360Z,99216.16
2022-12-23T02:52:49.670Z,99221.00
2022-12-23T02:53:54.787Z,99215.00
2022-12-23T02:55:01.067Z,99215.88
2022-12-23T02:56:05.759Z,99222.22
2022-12-23T02:57:11.142Z,99226.00
2022-12-23T02:58:15.144Z,99224.63
2022-12-23T02:59:22.638Z,99229.81
2022-12-23T03:00:24.301Z,99230.22
2022-12-23T03:01:32.694Z,99221.72
2022-12-23T03:02:38.102Z,99230.06
2022-12-23T03:03:42.375Z,99228.34
2022-12-23T03:04:44.056Z,99234.00
2022-12-23T03:05:48.710Z,99234.53
2022-12-23T03:06:53.735Z,99235.34
2022-12-23T03:07:59.444Z,99232.31
2022-12-23T03:09:01.118Z,99243.34
2022-12-23T03:10:13.353Z,99245.66
2022-12-23T03:11:16.806Z,99241.41
2022-12-23T03:12:31.684Z,99245.00
2022-12-23T03:13:46.506Z,99249.66
2022-12-23T03:15:03.177Z,99250.47
2022-12-23T03:16:15.164Z,99252.28
2022-12-23T03:17:32.895Z,99252.88
2022-12-23T03:18:45.414Z,99258.16
2022-12-23T03:19:54.811Z,99245.03
2022-12-23T03:21:03.476Z,99249.09
2022-12-23T03:22:11.757Z,99258.97
2022-12-23T03:23:21.680Z,99262.97
2022-12-23T03:24:33.658Z,99263.88
2022-12-23T03:25:40.313Z,99262.00
2022-12-23T03:26:50.781Z,99256.38
2022-12-23T03:27:59.587Z,99258.47
2022-12-23T03:29:09.961Z,99251.16
2022-12-23T03:30:14.073Z,99254.28
2022-12-23T03:31:23.595Z,99259.31
2022-12-23T03:32:31.534Z,99256.78
2022-12-23T03:33:37.890Z,99252.25
2022-12-23T03:34:43.103Z,99256.31
2022-12-23T03:35:50.315Z,99250.38
2022-12-23T03:36:56.274Z,99255.81
2022-12-23T03:38:00.404Z,99251.47
2022-12-23T03:39:06.823Z,99252.09
2022-12-23T03:40:17.573Z,99256.16
2022-12-23T03:41:23.506Z,99262.22
2022-12-23T03:42:30.033Z,99256.47
2022-12-23T03:43:35.740Z,99249.06
2022-12-23T03:45:03.678Z,99262.38
2022-12-23T03:46:12.665Z,99257.22
2022-12-23T03:47:19.688Z,99258.72
2022-12-23T03:48:27.801Z,99264.06
2022-12-23T03:49:34.597Z,99262.16
2022-12-23T03:50:37.813Z,99258.97
2022-12-23T03:51:46.642Z,99266.22
2022-12-23T03:52:53.378Z,99264.81
2022-12-23T03:54:00.906Z,99263.28
2022-12-23T03:55:06.705Z,99263.88
2022-12-23T03:56:13.100Z,99269.34
2022-12-23T03:57:15.350Z,99256.13
2022-12-23T03:58:26.009Z,99259.88
2022-12-23T03:59:31.520Z,99244.81
2022-12-23T04:00:38.939Z,99253.75
2022-12-23T04:01:48.221Z,99257.97
2022-12-23T04:02:58.606Z,99260.31
2022-12-23T04:04:06.205Z,99253.31
2022-12-23T04:05:18.189Z,99251.78
2022-12-23T04:06:21.266Z,99245.28
2022-12-23T04:07:29.735Z,99250.81
2022-12-23T04:08:35.729Z,99244.75
2022-12-23T04:09:39.566Z,99237.41
2022-12-23T04:10:41.350Z,99239.16
2022-12-23T04:11:46.123Z,99242.16
2022-12-23T04:12:47.933Z,99243.38
2022-12-23T04:13:50.417Z,99242.69
2022-12-23T04:14:52.155Z,99246.03
2022-12-23T04:15:55.254Z,99254.50
2022-12-23T04:16:58.682Z,99255.00
2022-12-23T04:18:01.191Z,99253.00
2022-12-23T04:19:03.998Z,99255.06
2022-12-23T04:20:08.410Z,99246.81
2022-12-23T04:21:09.945Z,99251.13
2022-12-23T04:22:12.803Z,99259.16
2022-12-23T04:23:14.343Z,99258.50
2022-12-23T04:24:16.923Z,99241.69
2022-12-23T04:25:18.700Z,99248.38
2022-12-23T04:26:21.171Z,99246.94
2022-12-23T04:27:22.714Z,99249.97
2022-12-23T04:28:25.189Z,99251.88
2022-12-23T04:29:26.722Z,99247.88
2022-12-23T04:30:33.982Z,99244.91
2022-12-23T04:31:36.100Z,99249.75
2022-12-23T04:32:39.138Z,99245.22
2022-12-23T04:33:40.705Z,99254.00
2022-12-23T04:34:44.704Z,99248.66
2022-12-23T04:35:46.182Z,99247.84
2022-12-23T04:36:48.656Z,99250.78
2022-12-23T04:37:50.255Z,99242.19
2022-12-23T04:38:52.657Z,99238.75
2022-12-23T04:39:54.339Z,99245.81
2022-12-23T04:40:56.774Z,99249.28
2022-12-23T04:41:58.255Z,99242.59
2022-12-23T04:43:00.662Z,99239.16
2022-12-23T04:44:02.187Z,99248.03
2022-12-23T04:45:05.163Z,99250.53
2022-12-23T04:46:07.035Z,99244.81
2022-12-23T04:47:09.611Z,99255.31
2022-12-23T04:48:11.169Z,99248.44
2022-12-23T04:49:13.615Z,99241.78
2022-12-23T04:50:17.173Z,99246.50
2022-12-23T04:51:19.649Z,99246.16
2022-12-23T04:52:21.219Z,99249.44
2022-12-23T04:53:23.718Z,99255.31
2022-12-23T04:54:25.246Z,99247.94
2022-12-23T04:55:27.683Z,99249.56
2022-12-23T04:56:29.235Z,99256.22
2022-12-23T04:57:31.670Z,99258.31
2022-12-23T04:58:33.269Z,99260.75
2022-12-23T04:59:35.686Z,99257.03
2022-12-23T05:00:39.765Z,99251.38
2022-12-23T05:01:43.149Z,99250.69
2022-12-23T05:02:44.799Z,99261.97
2022-12-23T05:03:47.383Z,99261.97
2022-12-23T05:04:48.844Z,99262.78
2022-12-23T05:05:52.660Z,99271.38
2022-12-23T05:06:54.135Z,99267.63
2022-12-23T05:08:04.243Z,99268.41
2022-12-23T05:09:05.891Z,99268.84
2022-12-23T05:10:10.268Z,99268.44
2022-12-23T05:11:11.878Z,99270.53
2022-12-23T05:12:14.331Z,99269.53
2022-12-23T05:13:15.864Z,99270.03
2022-12-23T05:14:18.379Z,99265.91
2022-12-23T05:15:20.006Z,99276.00
2022-12-23T05:16:22.527Z,99269.53
2022-12-23T05:17:24.232Z,99267.00
2022-12-23T05:18:26.735Z,99262.19
2022-12-23T05:19:28.294Z,99265.72
2022-12-23T05:20:30.762Z,99267.31
2022-12-23T05:21:33.568Z,99256.72
2022-12-23T05:22:36.056Z,99260.56
2022-12-23T05:23:38.073Z,99262.88
2022-12-23T05:24:40.508Z,99266.59
2022-12-23T05:25:42.004Z,99279.41
2022-12-23T05:26:48.042Z,99274.69
2022-12-23T05:27:50.242Z,99281.53
2022-12-23T05:28:52.731Z,99285.47
2022-12-23T05:29:54.441Z,99275.69
2022-12-23T05:31:00.513Z,99277.28
2022-12-23T05:32:05.952Z,99279.72
2022-12-23T05:33:07.553Z,99282.16
2022-12-23T05:34:10.105Z,99287.47
2022-12-23T05:35:11.773Z,99287.28
2022-12-23T05:36:14.672Z,99278.13
2022-12-23T05:37:17.506Z,99289.72
2022-12-23T05:38:20.217Z,99279.72
2022-12-23T05:39:21.751Z,99289.31
2022-12-23T05:40:25.193Z,99294.53
2022-12-23T05:41:31.351Z,99292.63
2022-12-23T05:42:33.764Z,99296.84
2022-12-23T05:43:38.798Z,99294.03
2022-12-23T05:44:40.265Z,99289.19
2022-12-23T05:45:42.974Z,99288.81
2022-12-23T05:46:44.626Z,99284.16
2022-12-23T05:47:47.213Z,99294.56
2022-12-23T05:48:49.224Z,99284.88
2022-12-23T05:49:51.635Z,99300.72
2022-12-23T05:50:53.551Z,99288.69
2022-12-23T05:51:55.989Z,99289.81
2022-12-23T05:52:58.825Z,99293.16
2022-12-23T05:54:01.278Z,99295.03
2022-12-23T05:55:02.842Z,99299.97
2022-12-23T05:56:06.417Z,99292.81
2022-12-23T05:57:10.775Z,99295.41
2022-12-23T05:58:13.276Z,99295.44
2022-12-23T05:59:14.823Z,99289.91
2022-12-23T06:00:18.068Z,99291.41
2022-12-23T06:01:19.549Z,99290.22
2022-12-23T06:02:22.332Z,99297.44
2022-12-23T06:03:24.300Z,99286.47
2022-12-23T06:04:27.205Z,99283.34
2022-12-23T06:05:28.959Z,99283.53
2022-12-23T06:06:31.499Z,99298.06
2022-12-23T06:07:33.264Z,99287.69
2022-12-23T06:08:36.979Z,99295.16
2022-12-23T06:09:38.538Z,99289.81
2022-12-23T06:10:40.972Z,99286.47
2022-12-23T06:11:42.451Z,99292.63
2022-12-23T06:12:44.947Z,99291.91
2022-12-23T06:13:46.472Z,99298.69
2022-12-23T06:14:48.943Z,99302.81
2022-12-23T06:15:51.382Z,99308.34
2022-12-23T06:16:52.929Z,99297.25
2022-12-23T06:17:56.877Z,99306.25
2022-12-23T06:18:58.385Z,99304.66
2022-12-23T06:20:00.990Z,99307.56
2022-12-23T06:21:02.697Z,99307.06
2022-12-23T06:22:05.178Z,99301.81
2022-12-23T06:23:06.672Z,99303.22
2022-12-23T06:24:10.880Z,99306.75
2022-12-23T06:25:12.432Z,99307.97
2022-12-23T06:26:14.885Z,99310.00
2022-12-23T06:27:16.611Z,99318.16
2022-12-23T06:28:19.224Z,99312.56
2022-12-23T06:29:21.403Z,99311.03
2022-12-23T06:30:23.923Z,99312.41
2022-12-23T06:31:25.438Z,99319.25
2022-12-23T06:32:31.654Z,99324.81
2022-12-23T06:33:37.703Z,99323.91
2022-12-23T06:34:40.122Z,99321.25
2022-12-23T06:35:44.080Z,99325.22
2022-12-23T06:36:45.609Z,99329.53
2022-12-23T06:37:48.122Z,99327.53
2022-12-23T06:38:49.564Z,99329.78
2022-12-23T06:39:53.353Z,99331.88
2022-12-23T06:40:54.862Z,99324.31
2022-12-23T06:41:57.323Z,99332.81
2022-12-23T06:42:58.836Z,99332.97
2022-12-23T06:44:01.333Z,99338.41
2022-12-23T06:45:04.020Z,99338.19
2022-12-23T06:46:05.685Z,99348.81
2022-12-23T06:47:08.378Z,99354.47
2022-12-23T06:48:09.880Z,99336.81
2022-12-23T06:49:13.740Z,99350.97
2022-12-23T06:50:16.563Z,99349.56
2022-12-23T06:51:18.073Z,99349.91
2022-12-23T06:52:20.548Z,99348.19
2022-12-23T06:53:22.058Z,99349.22
2022-12-23T06:54:24.607Z,99346.91
2022-12-23T06:55:28.600Z,99357.66
2022-12-23T06:56:30.429Z,99360.13
2022-12-23T06:57:32.994Z,99350.28
2022-12-23T06:58:34.508Z,99352.78
2022-12-23T06:59:36.909Z,99359.84
2022-12-23T07:00:39.597Z,99353.19
2022-12-23T07:01:41.237Z,99361.25
2022-12-23T07:02:43.977Z,99362.75
2022-12-23T07:03:45.938Z,99361.97
2022-12-23T07:04:48.521Z,99365.78
2022-12-23T07:05:51.090Z,99362.25
2022-12-23T07:06:53.783Z,99365.19
2022-12-23T07:07:55.327Z,99368.63
2022-12-23T07:08:57.979Z,99362.63
2022-12-23T07:09:59.537Z,99362.75
2022-12-23T07:11:07.145Z,99368.94
2022-12-23T07:12:09.648Z,99373.34
2022-12-23T07:13:11.778Z,99374.78
2022-12-23T07:14:14.276Z,99368.91
2022-12-23T07:15:15.975Z,99376.22
2022-12-23T07:16:18.571Z,99361.16
2022-12-23T07:17:20.151Z,99368.00
2022-12-23T07:18:23.121Z,99364.06
2022-12-23T07:19:25.613Z,99371.50
2022-12-23T07:20:27.123Z,99364.47
2022-12-23T07:21:30.236Z,99368.25
2022-12-23T07:22:32.106Z,99367.91
2022-12-23T07:23:36.165Z,99365.81
2022-12-23T07:24:37.883Z,99364.47
2022-12-23T07:25:40.317Z,99367.75
2022-12-23T07:26:43.131Z,99368.13
2022-12-23T07:27:45.632Z,99370.84
2022-12-23T07:28:48.632Z,99367.50
2022-12-23T07:29:51.026Z,99369.31
2022-12-23T07:30:52.571Z,99367.00
2022-12-23T07:31:55.148Z,99366.00
2022-12-23T07:32:56.742Z,99366.16
2022-12-23T07:33:59.171Z,99357.16
2022-12-23T07:35:00.756Z,99372.03
2022-12-23T07:36:03.390Z,99369.22
2022-12-23T07:37:05.090Z,99377.91
2022-12-23T07:38:07.506Z,99372.66
2022-12-23T07:39:08.983Z,99378.81
2022-12-23T07:40:12.865Z,99375.59
2022-12-23T07:41:14.324Z,99371.03
2022-12-23T07:42:44.029Z,99368.53
2022-12-23T07:43:40.585Z,99375.97
2022-12-23T07:44:42.053Z,99376.81
2022-12-23T07:45:44.527Z,99376.31
2022-12-23T07:46:46.077Z,99383.03
2022-12-23T07:47:48.545Z,99381.66
2022-12-23T07:48:50.052Z,99376.97
2022-12-23T07:49:52.512Z,99385.63
2022-12-23T07:51:01.363Z,99375.91
2022-12-23T07:52:03.911Z,99387.25
2022-12-23T07:53:06.365Z,99387.72
2022-12-23T07:54:08.774Z,99388.50
2022-12-23T07:55:10.410Z,99389.59
2022-12-23T07:56:12.831Z,99391.44
2022-12-23T07:57:14.330Z,99378.94
2022-12-23T07:58:18.079Z,99386.09
2022-12-23T07:59:20.539Z,99389.44
2022-12-23T08:00:22.496Z,99383.25
2022-12-23T08:01:24.967Z,99384.28
2022-12-23T08:02:26.611Z,99384.06
2022-12-23T08:03:29.513Z,99389.69
2022-12-23T08:04:31.257Z,99389.25
2022-12-23T08:05:33.725Z,99392.75
2022-12-23T08:06:35.533Z,99397.00
2022-12-23T08:07:38.018Z,99391.97
2022-12-23T08:08:41.456Z,99392.50
2022-12-23T08:09:43.881Z,99401.56
2022-12-23T08:10:48.529Z,99403.66
2022-12-23T08:11:51.156Z,99403.22
2022-12-23T08:12:53.591Z,99401.09
2022-12-23T08:13:56.396Z,99406.19
2022-12-23T08:14:58.911Z,99408.06
2022-12-23T08:16:02.708Z,99408.47
2022-12-23T08:17:05.336Z,99407.06
2022-12-23T08:18:09.087Z,99407.25
2022-12-23T08:19:11.507Z,99400.09
2022-12-23T08:20:13.158Z,99404.63
2022-12-23T08:21:17.928Z,99415.44
2022-12-23T08:22:19.494Z,99409.47
2022-12-23T08:23:24.963Z,99415.53
2022-12-23T08:24:27.598Z,99412.50
2022-12-23T08:25:29.124Z,99412.41
2022-12-23T08:26:33.080Z,99410.91
2022-12-23T08:27:38.229Z,99402.91
2022-12-23T08:28:42.750Z,99409.25
2022-12-23T08:29:46.509Z,99403.25
2022-12-23T08:30:48.022Z,99403.50
2022-12-23T08:31:51.665Z,99396.13
2022-12-23T08:32:53.164Z,99400.16
2022-12-23T08:33:57.664Z,99402.22
2022-12-23T08:34:59.180Z,99400.66
2022-12-23T08:36:01.657Z,99407.25
2022-12-23T08:37:04.290Z,99404.22
2022-12-23T08:38:05.777Z,99403.81
2022-12-23T08:39:11.904Z,99400.66
2022-12-23T08:40:13.512Z,99394.91
2022-12-23T08:41:18.589Z,99410.06
2022-12-23T08:42:20.109Z,99399.22
2022-12-23T08:43:22.619Z,99403.88
2022-12-23T08:44:27.055Z,99396.50
2022-12-23T08:45:29.877Z,99420.16
2022-12-23T08:46:32.866Z,99406.63
2022-12-23T08:47:34.379Z,99411.06
2022-12-23T08:48:37.028Z,99410.34
2022-12-23T08:49:42.381Z,99415.03
2022-12-23T08:50:45.896Z,99424.78
2022-12-23T08:51:48.812Z,99418.16
2022-12-23T08:52:53.126Z,99430.56
2022-12-23T08:54:00.605Z,99424.22
2022-12-23T08:55:02.975Z,99433.53
2022-12-23T08:56:07.580Z,99423.00
2022-12-23T08:57:11.900Z,99430.66
2022-12-23T08:58:20.168Z,99422.78
2022-12-23T08:59:26.506Z,99429.44
2022-12-23T09:00:29.132Z,99427.00
2022-12-23T09:01:33.843Z,99440.72
2022-12-23T09:02:36.606Z,99434.66
2022-12-23T09:03:40.751Z,99435.88
2022-12-23T09:04:43.477Z,99434.09
2022-12-23T09:05:45.069Z,99446.03
2022-12-23T09:06:47.555Z,99436.53
2022-12-23T09:07:50.840Z,99445.50
2022-12-23T09:08:56.856Z,99444.94
2022-12-23T09:09:58.439Z,99444.13
2022-12-23T09:11:00.924Z,99444.22
2022-12-23T09:12:03.441Z,99437.97
2022-12-23T09:13:06.120Z,99441.19
2022-12-23T09:14:10.409Z,99437.84
2022-12-23T09:15:12.240Z,99438.97
2022-12-23T09:16:17.808Z,99435.13
2022-12-23T09:17:21.733Z,99435.94
2022-12-23T09:18:23.221Z,99448.25
2022-12-23T09:19:25.627Z,99444.44
2022-12-23T09:20:27.122Z,99450.25
2022-12-23T09:21:29.848Z,99450.25
2022-12-23T09:22:33.174Z,99445.63
2022-12-23T09:23:39.577Z,99453.91
2022-12-23T09:24:42.040Z,99453.19
2022-12-23T09:25:43.477Z,99462.50
2022-12-23T09:26:46.065Z,99455.34
2022-12-23T09:27:47.624Z,99457.22
2022-12-23T09:28:53.073Z,99460.09
2022-12-23T09:29:56.786Z,99457.16
2022-12-23T09:30:59.332Z,99462.31
2022-12-23T09:32:02.002Z,99464.66
2022-12-23T09:33:06.695Z,99473.13
2022-12-23T09:34:12.182Z,99468.88
2022-12-23T09:35:13.799Z,99473.13
2022-12-23T09:36:16.717Z,99485.63
2022-12-23T09:37:20.412Z,99484.94
2022-12-23T09:38:21.951Z,99477.06
2022-12-23T09:39:25.687Z,99477.56
2022-12-23T09:40:30.181Z,99486.34
2022-12-23T09:41:46.290Z,99493.09
2022-12-23T09:43:06.119Z,99486.84
2022-12-23T09:44:22.691Z,99487.44
2022-12-23T09:45:41.025Z,99504.94
2022-12-23T09:46:48.810Z,99491.59
2022-12-23T09:47:52.763Z,99483.69
2022-12-23T09:48:59.930Z,99501.16
2022-12-23T09:50:05.590Z,99499.66
2022-12-23T09:51:08.999Z,99491.28
2022-12-23T09:52:17.525Z,99492.47
2022-12-23T09:53:22.354Z,99496.91
2022-12-23T09:54:28.904Z,99488.53
2022-12-23T09:55:40.537Z,99499.16
2022-12-23T09:56:51.288Z,99491.19
2022-12-23T09:58:01.031Z,99492.69
2022-12-23T09:59:15.566Z,99484.88
2022-12-23T10:00:20.312Z,99494.34
2022-12-23T10:01:41.456Z,99484.06
2022-12-23T10:03:01.235Z,99490.13
2022-12-23T10:04:41.872Z,99480.13
2022-12-23T10:05:56.785Z,99483.63
2022-12-23T10:07:19.061Z,99484.56
2022-12-23T10:08:29.370Z,99482.63
2022-12-23T10:09:32.982Z,99486.16
2022-12-23T10:10:40.531Z,99480.03
2022-12-23T10:11:46.806Z,99480.03
2022-12-23T10:12:52.413Z,99472.22
2022-12-23T10:13:57.827Z,99472.13
2022-12-23T10:15:02.516Z,99481.63
2022-12-23T10:16:07.842Z,99474.22
2022-12-23T10:17:16.316Z,99473.94
2022-12-23T10:18:24.554Z,99472.84
2022-12-23T10:19:34.389Z,99468.31
2022-12-23T10:20:42.925Z,99470.84
2022-12-23T10:21:48.768Z,99477.75
2022-12-23T10:22:51.406Z,99475.78
2022-12-23T10:23:56.164Z,99479.81
2022-12-23T10:25:00.111Z,99472.69
2022-12-23T10:26:08.497Z,99479.94
2022-12-23T10:27:22.896Z,99470.75
2022-12-23T10:28:29.768Z,99479.63
2022-12-23T10:29:33.672Z,99476.16
2022-12-23T10:31:05.752Z,99469.31
2022-12-23T10:32:18.541Z,99457.59
2022-12-23T10:33:23.054Z,99468.00
2022-12-23T10:34:38.451Z,99471.13
2022-12-23T10:35:46.154Z,99474.78
2022-12-23T10:36:57.488Z,99478.47
2022-12-23T10:38:08.263Z,99484.56
2022-12-23T10:39:21.608Z,99492.91
2022-12-23T10:40:28.249Z,99488.91
2022-12-23T10:41:37.774Z,99493.09
2022-12-23T10:42:45.908Z,99490.59
2022-12-23T10:44:04.533Z,99491.31
2022-12-23T10:45:17.486Z,99498.56
2022-12-23T10:46:28.714Z,99488.16
2022-12-23T10:47:43.294Z,99503.72
2022-12-23T10:49:00.793Z,99518.09
2022-12-23T10:50:29.464Z,99508.81
2022-12-23T10:51:34.355Z,99503.97
2022-12-23T10:52:40.177Z,99501.03
2022-12-23T10:53:48.639Z,99513.78
2022-12-23T10:54:50.155Z,99509.31
2022-12-23T10:55:52.914Z,99506.59
2022-12-23T10:57:00.033Z,99511.56
2022-12-23T10:58:07.518Z,99501.22
2022-12-23T10:59:14.957Z,99513.66
2022-12-23T11:00:21.215Z,99514.44
2022-12-23T11:01:27.321Z,99512.22
2022-12-23T11:02:43.625Z,99510.69
2022-12-23T11:03:55.110Z,99503.63
2022-12-23T11:04:56.662Z,99499.19
2022-12-23T11:06:01.122Z,99504.81
2022-12-23T11:07:42.053Z,99498.31
2022-12-23T11:08:30.394Z,99496.25
2022-12-23T11:09:38.921Z,99494.00
2022-12-23T11:10:41.536Z,99494.94
2022-12-23T11:11:57.690Z,99493.03
2022-12-23T11:13:01.371Z,99494.00
2022-12-23T11:14:04.044Z,99499.78
2022-12-23T11:15:30.954Z,99493.13
2022-12-23T11:16:33.561Z,99492.53
2022-12-23T11:17:35.913Z,99490.78
2022-12-23T11:18:42.376Z,99488.13
2022-12-23T11:19:45.111Z,99487.03
2022-12-23T11:21:04.648Z,99495.81
2022-12-23T11:22:06.341Z,99493.78
2022-12-23T11:23:24.908Z,99487.84
2022-12-23T11:24:34.429Z,99493.03
2022-12-23T11:25:42.659Z,99489.34
2022-12-23T11:26:46.121Z,99488.50
2022-12-23T11:27:59.471Z,99483.28
2022-12-23T11:29:07.107Z,99487.56
2022-12-23T11:30:18.793Z,99477.75
2022-12-23T11:31:28.108Z,99478.97
2022-12-23T11:32:30.192Z,99472.88
2022-12-23T11:33:35.162Z,99470.75
2022-12-23T11:34:38.092Z,99477.25
2022-12-23T11:35:40.734Z,99467.38
2022-12-23T11:36:55.095Z,99464.72
2022-12-23T11:38:02.889Z,99471.78
2022-12-23T11:39:13.793Z,99468.75
2022-12-23T11:40:23.887Z,99466.81
2022-12-23T11:41:28.964Z,99456.34
2022-12-23T11:42:34.069Z,99457.09
2022-12-23T11:43:39.277Z,99454.91
2022-12-23T11:44:44.112Z,99448.81
2022-12-23T11:45:45.655Z,99451.00
2022-12-23T11:46:48.458Z,99446.47
2022-12-23T11:47:50.262Z,99453.88
2022-12-23T11:49:06.371Z,99450.00
2022-12-23T11:50:28.126Z,99451.28
2022-12-23T11:51:29.674Z,99448.81
2022-12-23T11:52:34.579Z,99446.19
2022-12-23T11:53:36.625Z,99456.31
2022-12-23T11:54:39.980Z,99452.75
2022-12-23T11:55:49.260Z,99444.31
2022-12-23T11:56:53.541Z,99447.19
2022-12-23T11:57:57.599Z,99443.00
2022-12-23T11:59:05.523Z,99444.75
2022-12-23T12:00:18.502Z,99453.38
2022-12-23T12:01:24.074Z,99441.88
2022-12-23T12:02:33.484Z,99443.63
2022-12-23T12:03:46.197Z,99443.28
2022-12-23T12:04:56.822Z,99447.00
2022-12-23T12:06:01.960Z,99441.94
2022-12-23T12:07:05.056Z,99447.41
2022-12-23T12:08:12.398Z,99444.03
2022-12-23T12:09:14.320Z,99449.13
2022-12-23T12:10:20.050Z,99432.94
2022-12-23T12:11:27.824Z,99437.19
2022-12-23T12:12:31.026Z,99437.56
2022-12-23T12:13:38.268Z,99448.34
2022-12-23T12:14:43.850Z,99447.50
2022-12-23T12:15:52.506Z,99450.72
2022-12-23T12:17:00.344Z,99441.31
2022-12-23T12:18:07.899Z,99444.22
2022-12-23T12:19:16.591Z,99439.63
2022-12-23T12:20:28.505Z,99441.84
2022-12-23T12:21:35.093Z,99436.81
2022-12-23T12:22:42.385Z,99437.63
2022-12-23T12:23:48.482Z,99433.97
2022-12-23T12:24:55.574Z,99436.72
2022-12-23T12:26:01.824Z,99434.50
2022-12-23T12:27:07.385Z,99435.84
2022-12-23T12:28:14.707Z,99437.03
2022-12-23T12:29:20.761Z,99432.81
2022-12-23T12:30:23.686Z,99432.84
2022-12-23T12:31:31.289Z,99434.13
2022-12-23T12:32:39.503Z,99435.94
2022-12-23T12:33:48.502Z,99433.97
2022-12-23T12:34:55.790Z,99437.09
2022-12-23T12:36:07.451Z,99430.47
2022-12-23T12:37:19.208Z,99434.97
2022-12-23T12:38:26.890Z,99426.75
2022-12-23T12:39:33.829Z,99428.94
2022-12-23T12:40:41.834Z,99422.16
2022-12-23T12:41:52.569Z,99427.38
2022-12-23T12:43:00.338Z,99423.84
2022-12-23T12:44:11.435Z,99425.66
2022-12-23T12:45:20.784Z,99430.28
2022-12-23T12:46:31.433Z,99422.31
2022-12-23T12:47:54.133Z,99423.81
2022-12-23T12:49:06.385Z,99416.56
2022-12-23T12:50:13.703Z,99423.69
2022-12-23T12:51:23.613Z,99420.16
2022-12-23T12:52:27.405Z,99419.84
2022-12-23T12:53:33.201Z,99411.44